createdAt,value
2023-04-25T00:01:17.346Z,10.72
2023-04-25T00:04:42.706Z,10.7
2023-04-25T00:08:07.768Z,10.7
2023-04-25T00:11:33.036Z,10.72
2023-04-25T00:14:58.232Z,10.73
2023-04-25T00:18:23.431Z,10.75
2023-04-25T00:21:48.642Z,10.75
2023-04-25T00:25:13.914Z,10.77
2023-04-25T00:28:39.394Z,10.79
2023-04-25T00:32:04.583Z,10.84
2023-04-25T00:35:29.792Z,10.85
2023-04-25T00:38:54.971Z,10.86
2023-04-25T00:42:20.174Z,10.88
2023-04-25T00:45:45.418Z,10.9
2023-04-25T00:49:10.592Z,10.9
2023-04-25T00:52:35.816Z,10.87
2023-04-25T00:56:01.023Z,10.86
2023-04-25T00:59:26.237Z,10.85
2023-04-25T01:02:51.571Z,10.82
2023-04-25T01:06:16.682Z,10.82
2023-04-25T01:09:41.927Z,10.84
2023-04-25T01:13:07.150Z,10.86
2023-04-25T01:16:32.356Z,10.86
2023-04-25T01:19:57.603Z,10.86
2023-04-25T01:23:22.773Z,10.89
2023-04-25T01:26:47.982Z,10.86
2023-04-25T01:30:13.228Z,10.84
2023-04-25T01:33:38.436Z,10.82
2023-04-25T01:37:03.677Z,10.78
2023-04-25T01:40:28.862Z,10.76
2023-04-25T01:43:54.109Z,10.78
2023-04-25T01:47:19.308Z,10.82
2023-04-25T01:50:44.527Z,10.86
2023-04-25T01:54:09.770Z,10.86
2023-04-25T01:57:34.947Z,10.85
2023-04-25T02:01:00.240Z,10.82
2023-04-25T02:04:25.524Z,10.81
2023-04-25T02:07:50.583Z,10.84
2023-04-25T02:11:15.845Z,10.88
2023-04-25T02:14:41.035Z,10.87
2023-04-25T02:18:06.301Z,10.81
2023-04-25T02:21:31.499Z,10.75
2023-04-25T02:24:56.728Z,10.7
2023-04-25T02:28:22.069Z,10.71
2023-04-25T02:31:47.352Z,10.71
2023-04-25T02:35:12.472Z,10.73
2023-04-25T02:38:37.696Z,10.77
2023-04-25T02:42:02.896Z,10.81
2023-04-25T02:45:28.137Z,10.84
2023-04-25T02:48:53.311Z,10.86
2023-04-25T02:52:18.529Z,10.86
2023-04-25T02:55:43.735Z,10.84
2023-04-25T02:59:08.932Z,10.85
2023-04-25T03:02:34.215Z,10.85
2023-04-25T03:05:59.358Z,10.83
2023-04-25T03:09:24.574Z,10.82
2023-04-25T03:12:49.797Z,10.8
2023-04-25T03:16:15.019Z,10.8
2023-04-25T03:19:40.245Z,10.79
2023-04-25T03:23:05.435Z,10.74
2023-04-25T03:26:30.648Z,10.7
2023-04-25T03:29:55.863Z,10.68
2023-04-25T03:33:21.057Z,10.64
2023-04-25T03:36:46.308Z,10.58
2023-04-25T03:40:11.884Z,10.53
2023-04-25T03:43:37.115Z,10.43
2023-04-25T03:47:02.399Z,10.32
2023-04-25T03:50:27.642Z,10.23
2023-04-25T03:53:53.258Z,10.14
2023-04-25T03:57:18.139Z,10.11
2023-04-25T04:00:43.360Z,10.09
2023-04-25T04:04:08.739Z,10.04
2023-04-25T04:07:33.867Z,10.01
2023-04-25T04:10:59.078Z,9.9
2023-04-25T04:14:24.293Z,9.8
2023-04-25T04:17:49.557Z,9.73
2023-04-25T04:21:14.751Z,9.68
2023-04-25T04:24:40.000Z,9.6
2023-04-25T04:28:05.248Z,9.51
2023-04-25T04:31:30.477Z,9.45
2023-04-25T04:34:55.709Z,9.43
2023-04-25T04:38:20.954Z,9.44
2023-04-25T04:41:46.179Z,9.46
2023-04-25T04:45:11.462Z,9.46
2023-04-25T04:48:36.626Z,9.5
2023-04-25T04:52:01.864Z,9.51
2023-04-25T04:55:27.080Z,9.53
2023-04-25T04:58:52.331Z,9.6
2023-04-25T05:02:17.567Z,9.64
2023-04-25T05:05:42.763Z,9.66
2023-04-25T05:09:08.000Z,9.69
2023-04-25T05:12:34.112Z,9.75
2023-04-25T05:15:58.491Z,9.78
2023-04-25T05:19:23.713Z,9.78
2023-04-25T05:22:50.323Z,9.84
2023-04-25T05:26:15.522Z,9.88
2023-04-25T05:29:40.721Z,9.94
2023-04-25T05:33:05.992Z,9.98
2023-04-25T05:36:31.227Z,10.04
2023-04-25T05:39:56.418Z,10.11
2023-04-25T05:43:21.632Z,10.18
2023-04-25T05:46:46.877Z,10.21
2023-04-25T05:50:12.140Z,10.27
2023-04-25T05:53:37.360Z,10.33
2023-04-25T05:57:02.566Z,10.37
2023-04-25T06:00:27.798Z,10.4
2023-04-25T06:03:53.363Z,10.42
2023-04-25T06:07:18.291Z,10.44
2023-04-25T06:10:43.554Z,10.47
2023-04-25T06:14:08.767Z,10.5
2023-04-25T06:17:34.096Z,10.56
2023-04-25T06:20:59.213Z,10.6
2023-04-25T06:24:24.429Z,10.64
2023-04-25T06:27:49.754Z,10.64
2023-04-25T06:31:15.017Z,10.63
2023-04-25T06:34:40.232Z,10.65
2023-04-25T06:38:05.454Z,10.68
2023-04-25T06:41:30.686Z,10.76
2023-04-25T06:44:55.940Z,10.9
2023-04-25T06:48:21.177Z,10.98
2023-04-25T06:51:46.386Z,11.04
2023-04-25T06:55:11.609Z,11.05
2023-04-25T06:58:36.810Z,11.11
2023-04-25T07:02:02.104Z,11.2
2023-04-25T07:05:27.337Z,11.25
2023-04-25T07:08:52.847Z,11.27
2023-04-25T07:12:17.812Z,11.25
2023-04-25T07:15:43.034Z,11.23
2023-04-25T07:19:08.274Z,11.24
2023-04-25T07:22:33.494Z,11.32
2023-04-25T07:25:59.044Z,11.35
2023-04-25T07:29:24.283Z,11.42
2023-04-25T07:32:49.514Z,11.58
2023-04-25T07:36:14.735Z,11.64
2023-04-25T07:39:39.945Z,11.62
2023-04-25T07:43:05.223Z,11.64
2023-04-25T07:46:30.485Z,11.73
2023-04-25T07:49:55.679Z,11.74
2023-04-25T07:53:20.901Z,11.77
2023-04-25T07:56:52.493Z,11.78
2023-04-25T08:00:11.335Z,11.68
2023-04-25T08:03:36.756Z,11.58
2023-04-25T08:07:01.780Z,11.51
2023-04-25T08:10:27.036Z,11.48
2023-04-25T08:13:52.211Z,11.38
2023-04-25T08:17:17.433Z,11.29
2023-04-25T08:20:42.645Z,11.22
2023-04-25T08:24:07.881Z,11.38
2023-04-25T08:27:33.106Z,11.65
2023-04-25T08:30:58.339Z,11.79
2023-04-25T08:34:23.546Z,11.84
2023-04-25T08:37:48.766Z,11.83
2023-04-25T08:41:14.002Z,11.67
2023-04-25T08:44:39.289Z,11.52
2023-04-25T08:48:04.506Z,11.5
2023-04-25T08:51:29.765Z,11.55
2023-04-25T08:54:54.950Z,11.64
2023-04-25T08:58:20.178Z,11.7
2023-04-25T09:01:45.488Z,11.77
2023-04-25T09:05:10.644Z,11.85
2023-04-25T09:08:35.893Z,11.91
2023-04-25T09:12:01.176Z,12.01
2023-04-25T09:15:26.373Z,12.08
2023-04-25T09:18:51.657Z,12.18
2023-04-25T09:22:16.829Z,12.23
2023-04-25T09:25:42.088Z,12.19
2023-04-25T09:29:07.292Z,12.06
2023-04-25T09:32:32.662Z,11.96
2023-04-25T09:35:57.888Z,11.87
2023-04-25T09:39:23.026Z,11.76
2023-04-25T09:42:48.260Z,11.67
2023-04-25T09:46:13.470Z,11.5
2023-04-25T09:49:38.695Z,11.28
2023-04-25T09:53:03.985Z,11.26
2023-04-25T09:56:29.137Z,11.35
2023-04-25T09:59:54.358Z,11.45
2023-04-25T10:03:19.643Z,11.56
2023-04-25T10:06:44.828Z,11.62
2023-04-25T10:10:10.106Z,11.66
2023-04-25T10:13:35.276Z,11.62
2023-04-25T10:17:00.495Z,11.55
2023-04-25T10:20:25.702Z,11.43
2023-04-25T10:23:51.174Z,11.41
2023-04-25T10:27:16.232Z,11.32
2023-04-25T10:30:41.438Z,11.21
2023-04-25T10:34:06.644Z,11.2
2023-04-25T10:37:31.851Z,11.21
2023-04-25T10:40:57.676Z,11.26
2023-04-25T10:44:22.926Z,11.35
2023-04-25T10:47:48.297Z,11.47
2023-04-25T10:51:13.493Z,11.58
2023-04-25T10:54:38.718Z,11.67
2023-04-25T10:58:03.964Z,11.76
2023-04-25T11:01:29.316Z,12.06
2023-04-25T11:04:54.457Z,12.22
2023-04-25T11:08:19.670Z,12.28
2023-04-25T11:11:44.907Z,12.19
2023-04-25T11:15:10.169Z,12.03
2023-04-25T11:18:35.474Z,11.88
2023-04-25T11:22:00.653Z,11.89
2023-04-25T11:25:25.868Z,12.01
2023-04-25T11:28:51.072Z,12.28
2023-04-25T11:32:16.352Z,12.43
2023-04-25T11:35:41.580Z,12.47
2023-04-25T11:39:06.731Z,12.41
2023-04-25T11:42:31.986Z,12.42
2023-04-25T11:45:57.507Z,12.48
2023-04-25T11:49:22.681Z,12.62
2023-04-25T11:52:47.948Z,12.46
2023-04-25T11:56:13.160Z,12.11
2023-04-25T11:59:38.350Z,11.68
2023-04-25T12:03:03.705Z,11.28
2023-04-25T12:06:28.803Z,11.16
2023-04-25T12:09:54.162Z,11.18
2023-04-25T12:13:19.217Z,11.27
2023-04-25T12:16:44.499Z,11.28
2023-04-25T12:20:09.697Z,11.39
2023-04-25T12:23:34.940Z,11.41
2023-04-25T12:27:00.363Z,11.48
2023-04-25T12:30:25.467Z,11.58
2023-04-25T12:33:50.689Z,11.7
2023-04-25T12:37:15.909Z,11.74
2023-04-25T12:40:41.136Z,11.76
2023-04-25T12:44:06.604Z,11.74
2023-04-25T12:47:31.830Z,11.77
2023-04-25T12:50:57.060Z,11.91
2023-04-25T12:54:22.229Z,12
2023-04-25T12:57:47.467Z,12.12
2023-04-25T13:01:12.804Z,12.13
2023-04-25T13:04:38.091Z,12.11
2023-04-25T13:08:03.352Z,12.07
2023-04-25T13:14:53.939Z,12.17
2023-04-25T13:18:19.311Z,12.19
2023-04-25T13:21:44.564Z,12.17
2023-04-25T13:25:09.822Z,12.05
2023-04-25T13:28:35.179Z,11.87
2023-04-25T13:32:00.563Z,11.61
2023-04-25T13:35:25.964Z,11.42
2023-04-25T13:38:51.260Z,11.32
2023-04-25T13:42:16.566Z,11.28
2023-04-25T13:45:41.900Z,11.24
2023-04-25T13:49:12.585Z,11.18
2023-04-25T13:52:32.537Z,11.16
2023-04-25T13:55:57.808Z,11.15
2023-04-25T13:59:23.113Z,11.15
2023-04-25T14:02:50.551Z,11.21
2023-04-25T14:06:13.762Z,11.32
2023-04-25T14:09:39.097Z,11.35
2023-04-25T14:13:04.610Z,11.41
2023-04-25T14:16:29.905Z,11.47
2023-04-25T14:19:55.075Z,11.49
2023-04-25T14:23:20.479Z,11.47
2023-04-25T14:26:45.900Z,11.37
2023-04-25T14:30:11.196Z,11.21
2023-04-25T14:33:36.530Z,11.05
2023-04-25T14:37:01.833Z,10.8
2023-04-25T14:40:27.149Z,10.67
2023-04-25T14:43:52.970Z,10.59
2023-04-25T14:47:18.004Z,10.55
2023-04-25T14:50:43.436Z,10.43
2023-04-25T14:54:08.739Z,10.35
2023-04-25T14:57:34.070Z,10.24
2023-04-25T15:00:59.469Z,10.14
2023-04-25T15:04:24.704Z,10.12
2023-04-25T15:38:15.137Z,8.5
2023-04-25T15:41:40.420Z,9.47
2023-04-25T15:45:05.728Z,9.65
2023-04-25T15:48:31.058Z,9.86
2023-04-25T15:51:56.365Z,9.99
2023-04-25T15:55:21.938Z,10.13
2023-04-25T15:58:46.976Z,10.21
2023-04-25T16:02:12.303Z,10.27
2023-04-25T16:05:37.602Z,10.33
2023-04-25T16:09:02.888Z,10.39
2023-04-25T16:12:28.245Z,10.37
2023-04-25T16:15:53.526Z,10.33
2023-04-25T16:19:20.077Z,10.28
2023-04-25T16:22:45.421Z,10.25
2023-04-25T16:26:10.742Z,10.29
2023-04-25T16:29:36.086Z,10.33
2023-04-25T16:33:01.317Z,10.38
2023-04-25T16:36:26.584Z,10.42
2023-04-25T16:39:51.887Z,10.42
2023-04-25T16:43:17.193Z,10.39
2023-04-25T16:46:42.556Z,10.28
2023-04-25T16:50:07.791Z,10.19
2023-04-25T16:53:33.110Z,10.15
2023-04-25T16:56:58.383Z,10.11
2023-04-25T17:00:23.723Z,10.11
2023-04-25T17:03:49.250Z,10.06
2023-04-25T17:07:14.954Z,10.03
2023-04-25T17:10:40.452Z,10.01
2023-04-25T17:14:05.991Z,9.99
2023-04-25T17:17:31.548Z,9.95
2023-04-25T17:20:57.070Z,9.9
2023-04-25T17:24:22.416Z,9.9
2023-04-25T17:27:47.693Z,9.87
2023-04-25T17:31:13.015Z,9.83
2023-04-25T17:34:38.326Z,9.88
2023-04-25T17:38:03.702Z,9.94
2023-04-25T17:41:29.028Z,9.98
2023-04-25T17:44:54.341Z,9.96
2023-04-25T17:48:19.680Z,9.95
2023-04-25T17:51:45.009Z,10.02
2023-04-25T17:55:10.375Z,10.1
2023-04-25T17:58:35.647Z,10.13
2023-04-25T18:02:01.081Z,10.17
2023-04-25T18:05:26.346Z,10.17
2023-04-25T18:08:51.944Z,10.16
2023-04-25T18:12:17.051Z,10.19
2023-04-25T18:15:42.428Z,10.2
2023-04-25T18:19:07.769Z,10.22
2023-04-25T18:22:33.118Z,10.16
2023-04-25T18:25:58.454Z,10.11
2023-04-25T18:32:49.115Z,9.99
2023-04-25T18:36:14.401Z,9.94
2023-04-25T18:39:39.677Z,9.88
2023-04-25T18:43:04.998Z,9.84
2023-04-25T18:46:30.375Z,9.77
2023-04-25T18:49:55.662Z,9.7
2023-04-25T18:53:21.005Z,9.61
2023-04-25T18:56:46.320Z,9.55
2023-04-25T19:00:11.638Z,9.48
2023-04-25T19:03:37.078Z,9.29
2023-04-25T19:07:02.215Z,9.11
2023-04-25T19:10:27.538Z,9
2023-04-25T19:13:52.889Z,8.9
2023-04-25T19:17:18.196Z,8.82
2023-04-25T19:20:43.509Z,8.77
2023-04-25T19:24:08.832Z,8.72
2023-04-25T19:27:34.130Z,8.65
2023-04-25T19:30:59.417Z,8.58
2023-04-25T19:34:24.697Z,8.55
2023-04-25T19:37:49.991Z,8.53
2023-04-25T19:41:15.262Z,8.51
2023-04-25T19:44:40.596Z,8.51
2023-04-25T19:48:05.884Z,8.52
2023-04-25T19:51:31.113Z,8.53
2023-04-25T19:54:56.372Z,8.53
2023-04-25T19:58:21.584Z,8.53
2023-04-25T20:01:46.847Z,8.54
2023-04-25T20:05:12.141Z,8.53
2023-04-25T20:08:37.323Z,8.55
2023-04-25T20:12:02.557Z,8.59
2023-04-25T20:15:27.749Z,8.61
2023-04-25T20:18:53.382Z,8.62
2023-04-25T20:22:18.204Z,8.62
2023-04-25T20:25:43.476Z,8.63
2023-04-25T20:29:08.746Z,8.64
2023-04-25T20:32:33.994Z,8.63
2023-04-25T20:35:59.207Z,8.61
2023-04-25T20:39:24.441Z,8.6
2023-04-25T20:42:49.626Z,8.62
2023-04-25T20:46:15.041Z,8.63
2023-04-25T20:49:40.100Z,8.63
2023-04-25T20:53:05.311Z,8.63
2023-04-25T20:56:30.545Z,8.62
2023-04-25T20:59:55.765Z,8.6
2023-04-25T21:03:21.096Z,8.58
2023-04-25T21:06:46.210Z,8.51
2023-04-25T21:10:11.455Z,8.44
2023-04-25T21:13:36.694Z,8.36
2023-04-25T21:17:01.951Z,8.3
2023-04-25T21:20:27.168Z,8.27
2023-04-25T21:23:52.370Z,8.23
2023-04-25T21:27:17.638Z,8.2
2023-04-25T21:30:42.874Z,8.19
2023-04-25T21:34:08.102Z,8.16
2023-04-25T21:37:33.449Z,8.07
2023-04-25T21:40:58.618Z,7.95
2023-04-25T21:44:23.852Z,7.87
2023-04-25T21:47:49.110Z,7.81
2023-04-25T21:51:14.265Z,7.79
2023-04-25T21:54:39.520Z,7.77
2023-04-25T21:58:04.680Z,7.75
2023-04-25T22:01:29.937Z,7.73
2023-04-25T22:04:55.161Z,7.72
2023-04-25T22:08:20.365Z,7.67
2023-04-25T22:11:45.601Z,7.64
2023-04-25T22:15:10.778Z,7.61
2023-04-25T22:18:35.992Z,7.65
2023-04-25T22:22:01.234Z,7.64
2023-04-25T22:25:26.726Z,7.56
2023-04-25T22:28:52.322Z,7.49
2023-04-25T22:32:17.151Z,7.5
2023-04-25T22:35:42.377Z,7.54
2023-04-25T22:39:07.624Z,7.57
2023-04-25T22:42:32.866Z,7.57
2023-04-25T22:45:58.114Z,7.61
2023-04-25T22:49:23.305Z,7.66
2023-04-25T22:52:48.534Z,7.73
2023-04-25T22:56:13.759Z,7.7
2023-04-25T22:59:39.009Z,7.64
2023-04-25T23:03:04.592Z,7.59
2023-04-25T23:06:29.503Z,7.56
2023-04-25T23:09:54.728Z,7.6
2023-04-25T23:13:20.000Z,7.66
2023-04-25T23:16:45.237Z,7.7
2023-04-25T23:20:10.653Z,7.71
2023-04-25T23:23:35.711Z,7.73
2023-04-25T23:27:00.957Z,7.76
2023-04-25T23:30:26.161Z,7.77
2023-04-25T23:33:51.404Z,7.71
2023-04-25T23:37:16.596Z,7.64
2023-04-25T23:40:41.800Z,7.62
2023-04-25T23:44:07.030Z,7.62
2023-04-25T23:47:32.241Z,7.59
2023-04-25T23:50:57.440Z,7.59
2023-04-25T23:54:22.680Z,7.6
2023-04-25T23:57:47.876Z,7.61
